sensor_id;sensor_type;location;lat;lon;timestamp;P1;durP1;ratioP1;P2;durP2;ratioP2
2912;SDS011;1466;48.778;9.166;2022-08-19T00:01:38;31.63;;;17.77;;
2912;SDS011;1466;48.778;9.166;2022-08-19T00:04:09;28.53;;;15.80;;
2912;SDS011;1466;48.778;9.166;2022-08-19T00:06:38;31.20;;;17.90;;
2912;SDS011;1466;48.778;9.166;2022-08-19T00:09:06;27.30;;;15.87;;
2912;SDS011;1466;48.778;9.166;2022-08-19T00:11:35;33.57;;;16.60;;
2912;SDS011;1466;48.778;9.166;2022-08-19T00:14:03;27.13;;;16.17;;
2912;SDS011;1466;48.778;9.166;2022-08-19T00:16:30;25.97;;;16.40;;
2912;SDS011;1466;48.778;9.166;2022-08-19T00:18:55;38.93;;;17.97;;
2912;SDS011;1466;48.778;9.166;2022-08-19T00:21:22;25.37;;;14.27;;
2912;SDS011;1466;48.778;9.166;2022-08-19T00:23:49;29.20;;;15.70;;
2912;SDS011;1466;48.778;9.166;2022-08-19T00:26:15;27.60;;;15.27;;
2912;SDS011;1466;48.778;9.166;2022-08-19T00:28:40;29.70;;;16.07;;
2912;SDS011;1466;48.778;9.166;2022-08-19T00:31:07;30.57;;;17.40;;
2912;SDS011;1466;48.778;9.166;2022-08-19T00:33:34;30.33;;;16.07;;
2912;SDS011;1466;48.778;9.166;2022-08-19T00:36:00;30.20;;;16.73;;
2912;SDS011;1466;48.778;9.166;2022-08-19T00:38:29;26.07;;;16.60;;
2912;SDS011;1466;48.778;9.166;2022-08-19T00:40:55;29.30;;;16.53;;
2912;SDS011;1466;48.778;9.166;2022-08-19T00:43:22;28.70;;;16.80;;
2912;SDS011;1466;48.778;9.166;2022-08-19T00:45:49;29.23;;;16.63;;
2912;SDS011;1466;48.778;9.166;2022-08-19T00:48:16;33.23;;;15.50;;
2912;SDS011;1466;48.778;9.166;2022-08-19T00:50:43;31.27;;;15.60;;
2912;SDS011;1466;48.778;9.166;2022-08-19T00:53:10;32.60;;;17.17;;
2912;SDS011;1466;48.778;9.166;2022-08-19T00:55:40;29.97;;;16.93;;
2912;SDS011;1466;48.778;9.166;2022-08-19T00:58:09;30.13;;;16.80;;
2912;SDS011;1466;48.778;9.166;2022-08-19T01:00:38;36.53;;;16.77;;
2912;SDS011;1466;48.778;9.166;2022-08-19T01:03:08;32.73;;;16.87;;
2912;SDS011;1466;48.778;9.166;2022-08-19T01:05:35;27.70;;;15.80;;
2912;SDS011;1466;48.778;9.166;2022-08-19T01:08:04;37.07;;;17.93;;
2912;SDS011;1466;48.778;9.166;2022-08-19T01:10:33;28.83;;;16.07;;
2912;SDS011;1466;48.778;9.166;2022-08-19T01:13:04;25.10;;;15.63;;
2912;SDS011;1466;48.778;9.166;2022-08-19T01:15:31;27.97;;;16.70;;
2912;SDS011;1466;48.778;9.166;2022-08-19T01:18:05;31.53;;;17.00;;
2912;SDS011;1466;48.778;9.166;2022-08-19T01:20:33;27.63;;;16.07;;
2912;SDS011;1466;48.778;9.166;2022-08-19T01:22:59;37.90;;;17.20;;
2912;SDS011;1466;48.778;9.166;2022-08-19T01:25:34;36.07;;;17.10;;
2912;SDS011;1466;48.778;9.166;2022-08-19T01:28:06;37.50;;;18.00;;
2912;SDS011;1466;48.778;9.166;2022-08-19T01:30:33;30.07;;;16.57;;
2912;SDS011;1466;48.778;9.166;2022-08-19T01:33:00;28.33;;;16.10;;
2912;SDS011;1466;48.778;9.166;2022-08-19T01:35:26;37.43;;;17.37;;
2912;SDS011;1466;48.778;9.166;2022-08-19T01:37:59;35.10;;;17.87;;
2912;SDS011;1466;48.778;9.166;2022-08-19T01:40:29;32.30;;;18.00;;
2912;SDS011;1466;48.778;9.166;2022-08-19T01:42:56;27.87;;;16.80;;
2912;SDS011;1466;48.778;9.166;2022-08-19T01:45:23;32.30;;;17.10;;
2912;SDS011;1466;48.778;9.166;2022-08-19T01:47:50;35.97;;;17.83;;
2912;SDS011;1466;48.778;9.166;2022-08-19T01:50:16;31.77;;;16.63;;
2912;SDS011;1466;48.778;9.166;2022-08-19T01:52:42;33.47;;;17.30;;
2912;SDS011;1466;48.778;9.166;2022-08-19T01:55:10;35.67;;;17.50;;
2912;SDS011;1466;48.778;9.166;2022-08-19T01:57:37;29.67;;;17.07;;
2912;SDS011;1466;48.778;9.166;2022-08-19T02:00:07;30.07;;;19.00;;
2912;SDS011;1466;48.778;9.166;2022-08-19T02:02:37;26.07;;;16.73;;
2912;SDS011;1466;48.778;9.166;2022-08-19T02:05:03;25.43;;;16.27;;
2912;SDS011;1466;48.778;9.166;2022-08-19T02:07:29;31.20;;;16.83;;
2912;SDS011;1466;48.778;9.166;2022-08-19T02:09:54;38.70;;;18.80;;
2912;SDS011;1466;48.778;9.166;2022-08-19T02:12:20;34.50;;;17.30;;
2912;SDS011;1466;48.778;9.166;2022-08-19T02:14:46;29.67;;;17.20;;
2912;SDS011;1466;48.778;9.166;2022-08-19T02:17:12;29.27;;;18.97;;
2912;SDS011;1466;48.778;9.166;2022-08-19T02:19:37;32.53;;;18.30;;
2912;SDS011;1466;48.778;9.166;2022-08-19T02:22:03;44.33;;;20.50;;
2912;SDS011;1466;48.778;9.166;2022-08-19T02:24:29;41.83;;;20.27;;
2912;SDS011;1466;48.778;9.166;2022-08-19T02:26:54;35.50;;;18.53;;
2912;SDS011;1466;48.778;9.166;2022-08-19T02:29:20;35.37;;;18.33;;
2912;SDS011;1466;48.778;9.166;2022-08-19T02:31:46;41.30;;;19.17;;
2912;SDS011;1466;48.778;9.166;2022-08-19T02:34:12;34.23;;;19.40;;
2912;SDS011;1466;48.778;9.166;2022-08-19T02:36:37;35.93;;;18.17;;
2912;SDS011;1466;48.778;9.166;2022-08-19T02:39:03;36.93;;;20.40;;
2912;SDS011;1466;48.778;9.166;2022-08-19T02:41:29;41.83;;;20.27;;
2912;SDS011;1466;48.778;9.166;2022-08-19T02:43:58;37.63;;;19.83;;
2912;SDS011;1466;48.778;9.166;2022-08-19T02:46:30;38.47;;;20.30;;
2912;SDS011;1466;48.778;9.166;2022-08-19T02:49:01;40.87;;;20.50;;
2912;SDS011;1466;48.778;9.166;2022-08-19T02:51:31;44.80;;;21.10;;
2912;SDS011;1466;48.778;9.166;2022-08-19T02:54:00;41.10;;;18.37;;
2912;SDS011;1466;48.778;9.166;2022-08-19T02:56:26;35.80;;;19.17;;
2912;SDS011;1466;48.778;9.166;2022-08-19T02:58:53;38.50;;;18.70;;
2912;SDS011;1466;48.778;9.166;2022-08-19T03:01:41;40.80;;;19.77;;
2912;SDS011;1466;48.778;9.166;2022-08-19T03:04:08;31.87;;;19.10;;
2912;SDS011;1466;48.778;9.166;2022-08-19T03:06:38;31.60;;;18.30;;
2912;SDS011;1466;48.778;9.166;2022-08-19T03:09:06;34.50;;;19.07;;
2912;SDS011;1466;48.778;9.166;2022-08-19T03:11:32;43.40;;;21.43;;
2912;SDS011;1466;48.778;9.166;2022-08-19T03:13:58;32.20;;;20.50;;
2912;SDS011;1466;48.778;9.166;2022-08-19T03:16:25;33.50;;;20.43;;
2912;SDS011;1466;48.778;9.166;2022-08-19T03:18:55;36.80;;;21.27;;
2912;SDS011;1466;48.778;9.166;2022-08-19T03:21:24;44.77;;;22.10;;
2912;SDS011;1466;48.778;9.166;2022-08-19T03:23:54;36.70;;;20.73;;
2912;SDS011;1466;48.778;9.166;2022-08-19T03:26:21;38.13;;;21.23;;
2912;SDS011;1466;48.778;9.166;2022-08-19T03:28:47;41.23;;;20.57;;
2912;SDS011;1466;48.778;9.166;2022-08-19T03:31:15;46.90;;;23.10;;
2912;SDS011;1466;48.778;9.166;2022-08-19T03:33:43;42.27;;;20.90;;
2912;SDS011;1466;48.778;9.166;2022-08-19T03:36:11;45.23;;;24.30;;
2912;SDS011;1466;48.778;9.166;2022-08-19T03:38:39;37.57;;;20.47;;
2912;SDS011;1466;48.778;9.166;2022-08-19T03:41:07;33.20;;;20.20;;
2912;SDS011;1466;48.778;9.166;2022-08-19T03:43:36;37.63;;;22.10;;
2912;SDS011;1466;48.778;9.166;2022-08-19T03:46:10;49.23;;;22.80;;
2912;SDS011;1466;48.778;9.166;2022-08-19T03:48:38;39.33;;;22.10;;
2912;SDS011;1466;48.778;9.166;2022-08-19T03:51:05;44.93;;;22.77;;
2912;SDS011;1466;48.778;9.166;2022-08-19T03:53:32;41.77;;;21.13;;
2912;SDS011;1466;48.778;9.166;2022-08-19T03:55:59;37.03;;;21.87;;
2912;SDS011;1466;48.778;9.166;2022-08-19T03:58:25;49.40;;;23.87;;
2912;SDS011;1466;48.778;9.166;2022-08-19T04:00:53;37.20;;;21.80;;
2912;SDS011;1466;48.778;9.166;2022-08-19T04:03:22;39.97;;;22.90;;
2912;SDS011;1466;48.778;9.166;2022-08-19T04:05:49;35.93;;;21.97;;
2912;SDS011;1466;48.778;9.166;2022-08-19T04:08:14;36.93;;;21.00;;
2912;SDS011;1466;48.778;9.166;2022-08-19T04:10:43;47.40;;;24.30;;
2912;SDS011;1466;48.778;9.166;2022-08-19T04:13:09;38.43;;;22.40;;
2912;SDS011;1466;48.778;9.166;2022-08-19T04:15:38;43.37;;;22.17;;
2912;SDS011;1466;48.778;9.166;2022-08-19T04:18:06;40.10;;;22.97;;
2912;SDS011;1466;48.778;9.166;2022-08-19T04:20:43;36.93;;;22.10;;
2912;SDS011;1466;48.778;9.166;2022-08-19T04:23:12;48.17;;;24.20;;
2912;SDS011;1466;48.778;9.166;2022-08-19T04:25:39;45.60;;;23.00;;
2912;SDS011;1466;48.778;9.166;2022-08-19T04:28:08;38.53;;;22.93;;
2912;SDS011;1466;48.778;9.166;2022-08-19T04:30:43;50.73;;;23.37;;
2912;SDS011;1466;48.778;9.166;2022-08-19T04:33:11;50.37;;;24.30;;
2912;SDS011;1466;48.778;9.166;2022-08-19T04:35:39;40.63;;;22.23;;
2912;SDS011;1466;48.778;9.166;2022-08-19T04:38:07;42.57;;;23.40;;
2912;SDS011;1466;48.778;9.166;2022-08-19T04:40:33;39.07;;;23.17;;
2912;SDS011;1466;48.778;9.166;2022-08-19T04:43:17;47.47;;;23.87;;
2912;SDS011;1466;48.778;9.166;2022-08-19T04:45:43;47.27;;;24.03;;
2912;SDS011;1466;48.778;9.166;2022-08-19T04:48:09;43.53;;;23.77;;
2912;SDS011;1466;48.778;9.166;2022-08-19T04:50:36;36.03;;;22.67;;
2912;SDS011;1466;48.778;9.166;2022-08-19T04:53:05;41.83;;;23.73;;
2912;SDS011;1466;48.778;9.166;2022-08-19T04:55:30;32.97;;;22.33;;
2912;SDS011;1466;48.778;9.166;2022-08-19T04:57:56;43.10;;;23.57;;
2912;SDS011;1466;48.778;9.166;2022-08-19T05:00:22;44.33;;;24.17;;
2912;SDS011;1466;48.778;9.166;2022-08-19T05:02:47;48.90;;;25.97;;
2912;SDS011;1466;48.778;9.166;2022-08-19T05:05:14;36.93;;;22.33;;
2912;SDS011;1466;48.778;9.166;2022-08-19T05:07:40;33.90;;;21.57;;
2912;SDS011;1466;48.778;9.166;2022-08-19T05:10:06;42.40;;;22.17;;
2912;SDS011;1466;48.778;9.166;2022-08-19T05:12:32;42.93;;;23.00;;
2912;SDS011;1466;48.778;9.166;2022-08-19T05:14:58;41.17;;;25.07;;
2912;SDS011;1466;48.778;9.166;2022-08-19T05:17:26;47.73;;;24.20;;
2912;SDS011;1466;48.778;9.166;2022-08-19T05:19:52;50.53;;;23.87;;
2912;SDS011;1466;48.778;9.166;2022-08-19T05:22:36;42.57;;;24.33;;
2912;SDS011;1466;48.778;9.166;2022-08-19T05:25:10;30.70;;;20.67;;
2912;SDS011;1466;48.778;9.166;2022-08-19T05:27:37;45.20;;;23.43;;
2912;SDS011;1466;48.778;9.166;2022-08-19T05:30:03;40.87;;;22.13;;
2912;SDS011;1466;48.778;9.166;2022-08-19T05:32:29;39.67;;;22.60;;
2912;SDS011;1466;48.778;9.166;2022-08-19T05:34:55;45.93;;;23.73;;
2912;SDS011;1466;48.778;9.166;2022-08-19T05:37:21;35.60;;;23.00;;
2912;SDS011;1466;48.778;9.166;2022-08-19T05:39:47;41.10;;;21.90;;
2912;SDS011;1466;48.778;9.166;2022-08-19T05:42:14;45.43;;;24.23;;
2912;SDS011;1466;48.778;9.166;2022-08-19T05:44:41;49.37;;;23.20;;
2912;SDS011;1466;48.778;9.166;2022-08-19T05:47:09;38.83;;;23.37;;
2912;SDS011;1466;48.778;9.166;2022-08-19T05:49:35;43.37;;;22.67;;
2912;SDS011;1466;48.778;9.166;2022-08-19T05:52:05;45.43;;;24.67;;
2912;SDS011;1466;48.778;9.166;2022-08-19T05:54:33;39.83;;;23.27;;
2912;SDS011;1466;48.778;9.166;2022-08-19T05:57:00;36.70;;;22.20;;
2912;SDS011;1466;48.778;9.166;2022-08-19T05:59:26;36.20;;;23.17;;
2912;SDS011;1466;48.778;9.166;2022-08-19T06:01:52;33.60;;;22.73;;
2912;SDS011;1466;48.778;9.166;2022-08-19T06:04:20;36.57;;;22.37;;
2912;SDS011;1466;48.778;9.166;2022-08-19T06:06:47;37.70;;;21.67;;
2912;SDS011;1466;48.778;9.166;2022-08-19T06:09:16;41.03;;;23.60;;
2912;SDS011;1466;48.778;9.166;2022-08-19T06:11:44;45.50;;;23.63;;
2912;SDS011;1466;48.778;9.166;2022-08-19T06:14:13;45.63;;;23.03;;
2912;SDS011;1466;48.778;9.166;2022-08-19T06:16:41;46.00;;;23.10;;
2912;SDS011;1466;48.778;9.166;2022-08-19T06:19:09;42.83;;;23.03;;
2912;SDS011;1466;48.778;9.166;2022-08-19T06:21:38;41.53;;;24.17;;
2912;SDS011;1466;48.778;9.166;2022-08-19T06:24:06;39.03;;;22.37;;
2912;SDS011;1466;48.778;9.166;2022-08-19T06:26:34;33.63;;;22.50;;
2912;SDS011;1466;48.778;9.166;2022-08-19T06:29:02;38.73;;;21.87;;
2912;SDS011;1466;48.778;9.166;2022-08-19T06:31:31;41.33;;;22.73;;
2912;SDS011;1466;48.778;9.166;2022-08-19T06:33:59;41.40;;;22.70;;
2912;SDS011;1466;48.778;9.166;2022-08-19T06:36:33;40.20;;;22.57;;
2912;SDS011;1466;48.778;9.166;2022-08-19T06:39:02;50.70;;;24.83;;
2912;SDS011;1466;48.778;9.166;2022-08-19T06:41:30;44.23;;;23.20;;
2912;SDS011;1466;48.778;9.166;2022-08-19T06:43:59;50.87;;;23.73;;
2912;SDS011;1466;48.778;9.166;2022-08-19T06:46:24;42.73;;;23.53;;
2912;SDS011;1466;48.778;9.166;2022-08-19T06:48:51;36.27;;;21.57;;
2912;SDS011;1466;48.778;9.166;2022-08-19T06:51:18;51.70;;;24.83;;
2912;SDS011;1466;48.778;9.166;2022-08-19T06:53:48;44.67;;;25.40;;
2912;SDS011;1466;48.778;9.166;2022-08-19T06:56:15;46.63;;;24.27;;
2912;SDS011;1466;48.778;9.166;2022-08-19T06:58:43;37.70;;;22.33;;
2912;SDS011;1466;48.778;9.166;2022-08-19T07:01:09;48.10;;;25.07;;
2912;SDS011;1466;48.778;9.166;2022-08-19T07:03:36;53.50;;;26.20;;
2912;SDS011;1466;48.778;9.166;2022-08-19T07:06:05;42.57;;;24.00;;
2912;SDS011;1466;48.778;9.166;2022-08-19T07:08:34;34.43;;;22.23;;
2912;SDS011;1466;48.778;9.166;2022-08-19T07:11:02;44.07;;;24.03;;
2912;SDS011;1466;48.778;9.166;2022-08-19T07:13:31;51.67;;;24.87;;
2912;SDS011;1466;48.778;9.166;2022-08-19T07:16:07;46.03;;;23.60;;
2912;SDS011;1466;48.778;9.166;2022-08-19T07:18:35;38.73;;;22.20;;
2912;SDS011;1466;48.778;9.166;2022-08-19T07:21:02;41.13;;;22.87;;
2912;SDS011;1466;48.778;9.166;2022-08-19T07:23:32;33.57;;;22.07;;
2912;SDS011;1466;48.778;9.166;2022-08-19T07:26:03;45.17;;;26.30;;
2912;SDS011;1466;48.778;9.166;2022-08-19T07:28:42;46.63;;;23.33;;
2912;SDS011;1466;48.778;9.166;2022-08-19T07:31:10;46.37;;;23.70;;
2912;SDS011;1466;48.778;9.166;2022-08-19T07:33:37;38.17;;;23.07;;
2912;SDS011;1466;48.778;9.166;2022-08-19T07:36:04;43.53;;;23.67;;
2912;SDS011;1466;48.778;9.166;2022-08-19T07:38:33;40.73;;;22.40;;
2912;SDS011;1466;48.778;9.166;2022-08-19T07:40:59;42.00;;;21.53;;
2912;SDS011;1466;48.778;9.166;2022-08-19T07:43:26;40.73;;;23.03;;
2912;SDS011;1466;48.778;9.166;2022-08-19T07:45:52;41.37;;;23.60;;
2912;SDS011;1466;48.778;9.166;2022-08-19T07:48:24;41.77;;;21.67;;
2912;SDS011;1466;48.778;9.166;2022-08-19T07:50:55;47.90;;;24.55;;
2912;SDS011;1466;48.778;9.166;2022-08-19T07:53:22;39.77;;;20.67;;
2912;SDS011;1466;48.778;9.166;2022-08-19T07:55:49;46.87;;;22.50;;
2912;SDS011;1466;48.778;9.166;2022-08-19T07:58:17;38.60;;;22.50;;
2912;SDS011;1466;48.778;9.166;2022-08-19T08:00:45;41.63;;;21.13;;
2912;SDS011;1466;48.778;9.166;2022-08-19T08:03:13;43.03;;;23.53;;
2912;SDS011;1466;48.778;9.166;2022-08-19T08:05:40;35.80;;;20.13;;
2912;SDS011;1466;48.778;9.166;2022-08-19T08:08:25;36.50;;;21.43;;
2912;SDS011;1466;48.778;9.166;2022-08-19T08:11:10;37.87;;;21.73;;
2912;SDS011;1466;48.778;9.166;2022-08-19T08:13:36;41.23;;;21.60;;
2912;SDS011;1466;48.778;9.166;2022-08-19T08:16:02;63.90;;;21.80;;
2912;SDS011;1466;48.778;9.166;2022-08-19T08:18:28;36.07;;;19.23;;
2912;SDS011;1466;48.778;9.166;2022-08-19T08:20:54;40.80;;;25.43;;
2912;SDS011;1466;48.778;9.166;2022-08-19T08:23:21;44.03;;;20.90;;
2912;SDS011;1466;48.778;9.166;2022-08-19T08:25:47;39.20;;;22.17;;
2912;SDS011;1466;48.778;9.166;2022-08-19T08:28:13;39.40;;;22.37;;
2912;SDS011;1466;48.778;9.166;2022-08-19T08:30:40;48.33;;;22.57;;
2912;SDS011;1466;48.778;9.166;2022-08-19T08:33:08;43.30;;;21.87;;
2912;SDS011;1466;48.778;9.166;2022-08-19T08:35:34;38.87;;;21.40;;
2912;SDS011;1466;48.778;9.166;2022-08-19T08:38:00;40.97;;;22.60;;
2912;SDS011;1466;48.778;9.166;2022-08-19T08:40:30;50.63;;;21.60;;
2912;SDS011;1466;48.778;9.166;2022-08-19T08:43:26;39.10;;;19.57;;
2912;SDS011;1466;48.778;9.166;2022-08-19T08:48:41;35.47;;;19.73;;
2912;SDS011;1466;48.778;9.166;2022-08-19T08:51:15;37.20;;;21.13;;
2912;SDS011;1466;48.778;9.166;2022-08-19T08:53:47;40.43;;;21.17;;
2912;SDS011;1466;48.778;9.166;2022-08-19T08:56:16;35.50;;;20.37;;
2912;SDS011;1466;48.778;9.166;2022-08-19T08:58:53;45.33;;;24.60;;
2912;SDS011;1466;48.778;9.166;2022-08-19T09:01:24;36.43;;;21.20;;
2912;SDS011;1466;48.778;9.166;2022-08-19T09:03:49;43.60;;;25.07;;
2912;SDS011;1466;48.778;9.166;2022-08-19T09:07:00;43.73;;;22.30;;
2912;SDS011;1466;48.778;9.166;2022-08-19T09:16:57;34.90;;;19.27;;
2912;SDS011;1466;48.778;9.166;2022-08-19T09:19:23;36.43;;;22.00;;
2912;SDS011;1466;48.778;9.166;2022-08-19T09:21:49;31.20;;;19.90;;
2912;SDS011;1466;48.778;9.166;2022-08-19T09:24:15;41.40;;;20.70;;
2912;SDS011;1466;48.778;9.166;2022-08-19T09:26:41;33.90;;;20.50;;
2912;SDS011;1466;48.778;9.166;2022-08-19T09:29:08;35.23;;;20.63;;
2912;SDS011;1466;48.778;9.166;2022-08-19T09:31:34;41.70;;;21.83;;
2912;SDS011;1466;48.778;9.166;2022-08-19T09:34:00;32.10;;;18.70;;
2912;SDS011;1466;48.778;9.166;2022-08-19T09:36:28;37.90;;;18.80;;
2912;SDS011;1466;48.778;9.166;2022-08-19T09:38:57;29.63;;;18.67;;
2912;SDS011;1466;48.778;9.166;2022-08-19T09:41:25;31.00;;;18.83;;
2912;SDS011;1466;48.778;9.166;2022-08-19T09:43:52;36.70;;;18.97;;
2912;SDS011;1466;48.778;9.166;2022-08-19T09:46:20;39.40;;;20.70;;
2912;SDS011;1466;48.778;9.166;2022-08-19T09:48:47;33.87;;;18.50;;
2912;SDS011;1466;48.778;9.166;2022-08-19T09:51:15;37.37;;;17.93;;
2912;SDS011;1466;48.778;9.166;2022-08-19T09:53:45;36.40;;;20.07;;
2912;SDS011;1466;48.778;9.166;2022-08-19T09:56:12;38.07;;;19.67;;
2912;SDS011;1466;48.778;9.166;2022-08-19T09:58:38;32.13;;;17.90;;
2912;SDS011;1466;48.778;9.166;2022-08-19T10:01:05;31.40;;;18.33;;
2912;SDS011;1466;48.778;9.166;2022-08-19T10:03:32;39.47;;;18.97;;
2912;SDS011;1466;48.778;9.166;2022-08-19T10:05:59;52.73;;;20.50;;
2912;SDS011;1466;48.778;9.166;2022-08-19T10:08:31;35.57;;;17.40;;
2912;SDS011;1466;48.778;9.166;2022-08-19T10:11:00;30.43;;;16.67;;
2912;SDS011;1466;48.778;9.166;2022-08-19T10:13:27;24.30;;;14.53;;
2912;SDS011;1466;48.778;9.166;2022-08-19T10:15:55;26.90;;;15.87;;
2912;SDS011;1466;48.778;9.166;2022-08-19T10:18:27;40.13;;;17.70;;
2912;SDS011;1466;48.778;9.166;2022-08-19T10:21:01;34.47;;;17.77;;
2912;SDS011;1466;48.778;9.166;2022-08-19T10:23:39;41.33;;;17.93;;
2912;SDS011;1466;48.778;9.166;2022-08-19T10:26:13;25.33;;;16.13;;
2912;SDS011;1466;48.778;9.166;2022-08-19T10:28:41;38.83;;;17.63;;
2912;SDS011;1466;48.778;9.166;2022-08-19T10:31:12;38.17;;;18.23;;
2912;SDS011;1466;48.778;9.166;2022-08-19T10:33:45;41.80;;;18.37;;
2912;SDS011;1466;48.778;9.166;2022-08-19T10:36:13;43.03;;;18.57;;
2912;SDS011;1466;48.778;9.166;2022-08-19T10:38:45;35.50;;;18.47;;
2912;SDS011;1466;48.778;9.166;2022-08-19T10:41:16;33.70;;;16.30;;
2912;SDS011;1466;48.778;9.166;2022-08-19T10:43:43;47.87;;;19.67;;
2912;SDS011;1466;48.778;9.166;2022-08-19T10:46:11;43.30;;;18.10;;
2912;SDS011;1466;48.778;9.166;2022-08-19T10:48:39;34.50;;;16.90;;
2912;SDS011;1466;48.778;9.166;2022-08-19T10:51:05;31.77;;;15.77;;
2912;SDS011;1466;48.778;9.166;2022-08-19T10:53:50;26.53;;;15.50;;
2912;SDS011;1466;48.778;9.166;2022-08-19T10:56:17;27.90;;;14.57;;
2912;SDS011;1466;48.778;9.166;2022-08-19T10:59:01;27.07;;;15.23;;
2912;SDS011;1466;48.778;9.166;2022-08-19T11:01:28;28.67;;;14.53;;
2912;SDS011;1466;48.778;9.166;2022-08-19T11:03:55;28.80;;;14.00;;
2912;SDS011;1466;48.778;9.166;2022-08-19T11:06:22;32.40;;;15.73;;
2912;SDS011;1466;48.778;9.166;2022-08-19T11:08:53;31.40;;;15.60;;
2912;SDS011;1466;48.778;9.166;2022-08-19T11:11:19;28.67;;;15.20;;
2912;SDS011;1466;48.778;9.166;2022-08-19T11:13:45;39.40;;;16.60;;
2912;SDS011;1466;48.778;9.166;2022-08-19T11:16:13;24.20;;;13.60;;
2912;SDS011;1466;48.778;9.166;2022-08-19T11:18:42;24.00;;;14.20;;
2912;SDS011;1466;48.778;9.166;2022-08-19T11:23:45;24.40;;;14.53;;
2912;SDS011;1466;48.778;9.166;2022-08-19T11:26:13;24.73;;;14.90;;
2912;SDS011;1466;48.778;9.166;2022-08-19T11:28:39;30.60;;;14.60;;
2912;SDS011;1466;48.778;9.166;2022-08-19T11:31:13;29.10;;;14.90;;
2912;SDS011;1466;48.778;9.166;2022-08-19T11:33:43;27.43;;;14.23;;
2912;SDS011;1466;48.778;9.166;2022-08-19T11:36:10;22.43;;;14.03;;
2912;SDS011;1466;48.778;9.166;2022-08-19T11:38:36;20.23;;;13.83;;
2912;SDS011;1466;48.778;9.166;2022-08-19T11:41:03;25.67;;;13.83;;
2912;SDS011;1466;48.778;9.166;2022-08-19T11:43:30;24.63;;;13.80;;
2912;SDS011;1466;48.778;9.166;2022-08-19T11:45:56;20.30;;;12.40;;
2912;SDS011;1466;48.778;9.166;2022-08-19T11:48:25;19.73;;;12.87;;
2912;SDS011;1466;48.778;9.166;2022-08-19T11:50:52;27.17;;;14.40;;
2912;SDS011;1466;48.778;9.166;2022-08-19T11:53:20;23.23;;;13.57;;
2912;SDS011;1466;48.778;9.166;2022-08-19T11:55:47;26.17;;;14.30;;
2912;SDS011;1466;48.778;9.166;2022-08-19T11:58:14;55.93;;;19.40;;
2912;SDS011;1466;48.778;9.166;2022-08-19T12:00:41;40.70;;;15.43;;
2912;SDS011;1466;48.778;9.166;2022-08-19T12:03:10;46.63;;;18.30;;
2912;SDS011;1466;48.778;9.166;2022-08-19T12:05:37;45.00;;;17.17;;
2912;SDS011;1466;48.778;9.166;2022-08-19T12:08:04;38.73;;;15.93;;
2912;SDS011;1466;48.778;9.166;2022-08-19T12:10:31;48.43;;;16.60;;
2912;SDS011;1466;48.778;9.166;2022-08-19T12:12:58;46.80;;;16.97;;
2912;SDS011;1466;48.778;9.166;2022-08-19T12:15:23;43.30;;;16.93;;
2912;SDS011;1466;48.778;9.166;2022-08-19T12:17:49;48.13;;;17.70;;
2912;SDS011;1466;48.778;9.166;2022-08-19T12:20:15;43.60;;;17.67;;
2912;SDS011;1466;48.778;9.166;2022-08-19T12:22:42;41.53;;;16.30;;
2912;SDS011;1466;48.778;9.166;2022-08-19T12:25:11;39.33;;;16.70;;
2912;SDS011;1466;48.778;9.166;2022-08-19T12:27:37;44.83;;;16.83;;
2912;SDS011;1466;48.778;9.166;2022-08-19T12:30:04;63.57;;;17.83;;
2912;SDS011;1466;48.778;9.166;2022-08-19T12:32:32;44.27;;;17.80;;
2912;SDS011;1466;48.778;9.166;2022-08-19T12:34:59;45.90;;;17.27;;
2912;SDS011;1466;48.778;9.166;2022-08-19T12:37:24;38.83;;;16.43;;
2912;SDS011;1466;48.778;9.166;2022-08-19T12:39:50;54.57;;;17.60;;
2912;SDS011;1466;48.778;9.166;2022-08-19T12:42:16;44.10;;;16.60;;
2912;SDS011;1466;48.778;9.166;2022-08-19T12:44:43;42.43;;;17.47;;
2912;SDS011;1466;48.778;9.166;2022-08-19T12:47:10;31.43;;;15.87;;
2912;SDS011;1466;48.778;9.166;2022-08-19T12:49:37;25.80;;;15.23;;
2912;SDS011;1466;48.778;9.166;2022-08-19T12:52:05;21.17;;;14.00;;
2912;SDS011;1466;48.778;9.166;2022-08-19T12:54:32;21.40;;;14.20;;
2912;SDS011;1466;48.778;9.166;2022-08-19T12:56:59;24.83;;;14.80;;
2912;SDS011;1466;48.778;9.166;2022-08-19T12:59:25;41.80;;;18.50;;
2912;SDS011;1466;48.778;9.166;2022-08-19T13:01:51;20.67;;;14.27;;
2912;SDS011;1466;48.778;9.166;2022-08-19T13:04:17;27.10;;;15.10;;
2912;SDS011;1466;48.778;9.166;2022-08-19T13:06:43;25.63;;;15.90;;
2912;SDS011;1466;48.778;9.166;2022-08-19T13:09:09;27.63;;;15.03;;
2912;SDS011;1466;48.778;9.166;2022-08-19T13:11:35;30.07;;;16.90;;
2912;SDS011;1466;48.778;9.166;2022-08-19T13:14:02;24.23;;;15.57;;
2912;SDS011;1466;48.778;9.166;2022-08-19T13:16:29;23.23;;;15.07;;
2912;SDS011;1466;48.778;9.166;2022-08-19T13:18:56;20.33;;;14.27;;
2912;SDS011;1466;48.778;9.166;2022-08-19T13:21:23;24.07;;;15.10;;
2912;SDS011;1466;48.778;9.166;2022-08-19T13:23:51;24.80;;;15.23;;
2912;SDS011;1466;48.778;9.166;2022-08-19T13:26:17;21.90;;;15.20;;
2912;SDS011;1466;48.778;9.166;2022-08-19T13:28:43;26.13;;;15.33;;
2912;SDS011;1466;48.778;9.166;2022-08-19T13:31:29;25.23;;;14.93;;
2912;SDS011;1466;48.778;9.166;2022-08-19T13:34:16;33.57;;;16.97;;
2912;SDS011;1466;48.778;9.166;2022-08-19T13:36:42;30.33;;;17.23;;
2912;SDS011;1466;48.778;9.166;2022-08-19T13:39:08;26.40;;;18.27;;
2912;SDS011;1466;48.778;9.166;2022-08-19T13:41:35;30.13;;;18.07;;
2912;SDS011;1466;48.778;9.166;2022-08-19T13:44:01;28.43;;;17.77;;
2912;SDS011;1466;48.778;9.166;2022-08-19T13:46:28;35.53;;;20.00;;
2912;SDS011;1466;48.778;9.166;2022-08-19T13:48:55;22.90;;;17.23;;
2912;SDS011;1466;48.778;9.166;2022-08-19T13:51:21;32.97;;;19.63;;
2912;SDS011;1466;48.778;9.166;2022-08-19T13:53:47;30.23;;;18.10;;
2912;SDS011;1466;48.778;9.166;2022-08-19T13:56:14;39.20;;;21.17;;
2912;SDS011;1466;48.778;9.166;2022-08-19T13:58:41;37.30;;;21.27;;
2912;SDS011;1466;48.778;9.166;2022-08-19T14:01:08;43.77;;;23.27;;
2912;SDS011;1466;48.778;9.166;2022-08-19T14:03:35;35.37;;;20.93;;
2912;SDS011;1466;48.778;9.166;2022-08-19T14:06:01;43.73;;;23.33;;
2912;SDS011;1466;48.778;9.166;2022-08-19T14:08:27;50.60;;;26.87;;
2912;SDS011;1466;48.778;9.166;2022-08-19T14:10:53;53.13;;;26.53;;
2912;SDS011;1466;48.778;9.166;2022-08-19T14:13:20;45.73;;;24.90;;
2912;SDS011;1466;48.778;9.166;2022-08-19T14:15:47;43.23;;;24.90;;
2912;SDS011;1466;48.778;9.166;2022-08-19T14:18:14;57.50;;;28.60;;
2912;SDS011;1466;48.778;9.166;2022-08-19T14:20:41;46.53;;;25.37;;
2912;SDS011;1466;48.778;9.166;2022-08-19T14:23:07;38.80;;;25.20;;
2912;SDS011;1466;48.778;9.166;2022-08-19T14:25:32;40.37;;;26.03;;
2912;SDS011;1466;48.778;9.166;2022-08-19T14:27:59;44.30;;;24.47;;
2912;SDS011;1466;48.778;9.166;2022-08-19T14:30:32;36.80;;;22.67;;
2912;SDS011;1466;48.778;9.166;2022-08-19T14:32:59;51.03;;;25.50;;
2912;SDS011;1466;48.778;9.166;2022-08-19T14:35:27;42.37;;;24.30;;
2912;SDS011;1466;48.778;9.166;2022-08-19T14:37:54;35.93;;;22.00;;
2912;SDS011;1466;48.778;9.166;2022-08-19T14:40:21;34.73;;;20.93;;
2912;SDS011;1466;48.778;9.166;2022-08-19T14:42:52;39.53;;;22.77;;
2912;SDS011;1466;48.778;9.166;2022-08-19T14:45:20;38.63;;;21.20;;
2912;SDS011;1466;48.778;9.166;2022-08-19T14:47:46;38.20;;;20.73;;
2912;SDS011;1466;48.778;9.166;2022-08-19T14:50:12;41.50;;;22.40;;
2912;SDS011;1466;48.778;9.166;2022-08-19T14:52:38;38.47;;;21.27;;
2912;SDS011;1466;48.778;9.166;2022-08-19T14:55:05;40.57;;;21.60;;
2912;SDS011;1466;48.778;9.166;2022-08-19T14:57:31;41.10;;;21.47;;
2912;SDS011;1466;48.778;9.166;2022-08-19T14:59:56;39.67;;;20.20;;
2912;SDS011;1466;48.778;9.166;2022-08-19T15:02:23;37.40;;;20.40;;
2912;SDS011;1466;48.778;9.166;2022-08-19T15:04:49;34.40;;;18.77;;
2912;SDS011;1466;48.778;9.166;2022-08-19T15:07:15;40.23;;;20.70;;